sensor_id;sensor_type;location;lat;lon;timestamp;P1;durP1;ratioP1;P2;durP2;ratioP2
4325;SDS011;58429;49.826;10.880;2024-02-21T00:00:56;1.2;;;0.6;;
4325;SDS011;58429;49.826;10.880;2024-02-21T00:01:56;1.4;;;0.7;;
4325;SDS011;58429;49.826;10.880;2024-02-21T00:02:56;1.4;;;0.7;;
4325;SDS011;58429;49.826;10.880;2024-02-21T00:03:56;1.4;;;0.7;;
4325;SDS011;58429;49.826;10.880;2024-02-21T00:04:56;0.9;;;0.7;;
4325;SDS011;58429;49.826;10.880;2024-02-21T00:05:56;0.9;;;0.7;;
4325;SDS011;58429;49.826;10.880;2024-02-21T00:06:56;0.9;;;0.7;;
4325;SDS011;58429;49.826;10.880;2024-02-21T00:07:57;2.1;;;0.7;;
4325;SDS011;58429;49.826;10.880;2024-02-21T00:08:56;2.1;;;0.7;;
4325;SDS011;58429;49.826;10.880;2024-02-21T00:09:56;2.1;;;0.7;;
4325;SDS011;58429;49.826;10.880;2024-02-21T00:10:56;0.6;;;0.6;;
4325;SDS011;58429;49.826;10.880;2024-02-21T00:11:56;0.6;;;0.6;;
4325;SDS011;58429;49.826;10.880;2024-02-21T00:12:56;0.6;;;0.6;;
4325;SDS011;58429;49.826;10.880;2024-02-21T00:13:56;1.6;;;0.7;;
4325;SDS011;58429;49.826;10.880;2024-02-21T00:14:56;1.6;;;0.7;;
4325;SDS011;58429;49.826;10.880;2024-02-21T00:15:56;1.6;;;0.7;;
4325;SDS011;58429;49.826;10.880;2024-02-21T00:16:56;1.1;;;0.7;;
4325;SDS011;58429;49.826;10.880;2024-02-21T00:17:56;1.1;;;0.7;;
4325;SDS011;58429;49.826;10.880;2024-02-21T00:18:56;1.1;;;0.7;;
4325;SDS011;58429;49.826;10.880;2024-02-21T00:19:56;1.5;;;0.7;;
4325;SDS011;58429;49.826;10.880;2024-02-21T00:20:56;1.5;;;0.7;;
4325;SDS011;58429;49.826;10.880;2024-02-21T00:21:56;1.5;;;0.7;;
4325;SDS011;58429;49.826;10.880;2024-02-21T00:22:56;0.9;;;0.6;;
4325;SDS011;58429;49.826;10.880;2024-02-21T00:23:56;0.9;;;0.6;;
4325;SDS011;58429;49.826;10.880;2024-02-21T00:24:56;0.9;;;0.6;;
4325;SDS011;58429;49.826;10.880;2024-02-21T00:25:56;1.5;;;0.8;;
4325;SDS011;58429;49.826;10.880;2024-02-21T00:26:56;1.5;;;0.8;;
4325;SDS011;58429;49.826;10.880;2024-02-21T00:27:56;1.5;;;0.8;;
4325;SDS011;58429;49.826;10.880;2024-02-21T00:28:56;1.1;;;0.6;;
4325;SDS011;58429;49.826;10.880;2024-02-21T00:29:56;1.1;;;0.6;;
4325;SDS011;58429;49.826;10.880;2024-02-21T00:30:56;1.1;;;0.6;;
4325;SDS011;58429;49.826;10.880;2024-02-21T00:31:56;0.7;;;0.7;;
4325;SDS011;58429;49.826;10.880;2024-02-21T00:32:56;0.7;;;0.7;;
4325;SDS011;58429;49.826;10.880;2024-02-21T00:33:56;0.7;;;0.7;;
4325;SDS011;58429;49.826;10.880;2024-02-21T00:34:56;1.1;;;0.6;;
4325;SDS011;58429;49.826;10.880;2024-02-21T00:35:56;1.1;;;0.6;;
4325;SDS011;58429;49.826;10.880;2024-02-21T00:36:56;1.1;;;0.6;;
4325;SDS011;58429;49.826;10.880;2024-02-21T00:37:56;0.8;;;0.7;;
4325;SDS011;58429;49.826;10.880;2024-02-21T00:38:56;0.8;;;0.7;;
4325;SDS011;58429;49.826;10.880;2024-02-21T00:39:56;0.8;;;0.7;;
4325;SDS011;58429;49.826;10.880;2024-02-21T00:40:56;0.8;;;0.6;;
4325;SDS011;58429;49.826;10.880;2024-02-21T00:41:56;0.8;;;0.6;;
4325;SDS011;58429;49.826;10.880;2024-02-21T00:42:56;0.8;;;0.6;;
4325;SDS011;58429;49.826;10.880;2024-02-21T00:43:56;1.3;;;0.7;;
4325;SDS011;58429;49.826;10.880;2024-02-21T00:44:56;1.3;;;0.7;;
4325;SDS011;58429;49.826;10.880;2024-02-21T00:45:56;1.3;;;0.7;;
4325;SDS011;58429;49.826;10.880;2024-02-21T00:46:56;1;;;0.6;;
4325;SDS011;58429;49.826;10.880;2024-02-21T00:47:56;1;;;0.6;;
4325;SDS011;58429;49.826;10.880;2024-02-21T00:48:56;1;;;0.6;;
4325;SDS011;58429;49.826;10.880;2024-02-21T00:49:56;1;;;0.8;;
4325;SDS011;58429;49.826;10.880;2024-02-21T00:50:56;1;;;0.8;;
4325;SDS011;58429;49.826;10.880;2024-02-21T00:51:56;1;;;0.8;;
4325;SDS011;58429;49.826;10.880;2024-02-21T00:52:56;1.7;;;0.6;;
4325;SDS011;58429;49.826;10.880;2024-02-21T00:53:56;1.7;;;0.6;;
4325;SDS011;58429;49.826;10.880;2024-02-21T00:54:56;1.7;;;0.6;;
4325;SDS011;58429;49.826;10.880;2024-02-21T00:55:56;2.5;;;0.7;;
4325;SDS011;58429;49.826;10.880;2024-02-21T00:56:56;2.5;;;0.7;;
4325;SDS011;58429;49.826;10.880;2024-02-21T00:57:56;2.5;;;0.7;;
4325;SDS011;58429;49.826;10.880;2024-02-21T00:58:56;0.6;;;0.6;;
4325;SDS011;58429;49.826;10.880;2024-02-21T00:59:56;0.6;;;0.6;;
4325;SDS011;58429;49.826;10.880;2024-02-21T01:00:56;0.6;;;0.6;;
4325;SDS011;58429;49.826;10.880;2024-02-21T01:01:56;1.2;;;0.6;;
4325;SDS011;58429;49.826;10.880;2024-02-21T01:02:56;1.2;;;0.6;;
4325;SDS011;58429;49.826;10.880;2024-02-21T01:03:56;1.2;;;0.6;;
4325;SDS011;58429;49.826;10.880;2024-02-21T01:04:56;1.3;;;0.7;;
4325;SDS011;58429;49.826;10.880;2024-02-21T01:05:56;1.3;;;0.7;;
4325;SDS011;58429;49.826;10.880;2024-02-21T01:06:56;1.3;;;0.7;;
4325;SDS011;58429;49.826;10.880;2024-02-21T01:07:56;1.1;;;0.8;;
4325;SDS011;58429;49.826;10.880;2024-02-21T01:08:56;1.1;;;0.8;;
4325;SDS011;58429;49.826;10.880;2024-02-21T01:09:56;1.1;;;0.8;;
4325;SDS011;58429;49.826;10.880;2024-02-21T01:10:56;0.9;;;0.6;;
4325;SDS011;58429;49.826;10.880;2024-02-21T01:11:56;0.9;;;0.6;;
4325;SDS011;58429;49.826;10.880;2024-02-21T01:12:56;0.9;;;0.6;;
4325;SDS011;58429;49.826;10.880;2024-02-21T01:13:56;0.8;;;0.6;;
4325;SDS011;58429;49.826;10.880;2024-02-21T01:14:56;0.8;;;0.6;;
4325;SDS011;58429;49.826;10.880;2024-02-21T01:15:56;0.8;;;0.6;;
4325;SDS011;58429;49.826;10.880;2024-02-21T01:16:56;1.3;;;0.7;;
4325;SDS011;58429;49.826;10.880;2024-02-21T01:17:56;1.3;;;0.7;;
4325;SDS011;58429;49.826;10.880;2024-02-21T01:18:56;1.3;;;0.7;;
4325;SDS011;58429;49.826;10.880;2024-02-21T01:19:56;1.3;;;0.7;;
4325;SDS011;58429;49.826;10.880;2024-02-21T01:20:56;1.3;;;0.7;;
4325;SDS011;58429;49.826;10.880;2024-02-21T01:21:56;1.3;;;0.7;;
4325;SDS011;58429;49.826;10.880;2024-02-21T01:22:56;1.6;;;0.8;;
4325;SDS011;58429;49.826;10.880;2024-02-21T01:23:56;1.6;;;0.8;;
4325;SDS011;58429;49.826;10.880;2024-02-21T01:24:56;1.6;;;0.8;;
4325;SDS011;58429;49.826;10.880;2024-02-21T01:25:56;1.6;;;0.8;;
4325;SDS011;58429;49.826;10.880;2024-02-21T01:26:56;1.1;;;0.7;;
4325;SDS011;58429;49.826;10.880;2024-02-21T01:27:56;1.1;;;0.7;;
4325;SDS011;58429;49.826;10.880;2024-02-21T01:28:56;1.1;;;0.7;;
4325;SDS011;58429;49.826;10.880;2024-02-21T01:29:56;1.3;;;0.7;;
4325;SDS011;58429;49.826;10.880;2024-02-21T01:30:56;1.3;;;0.7;;
4325;SDS011;58429;49.826;10.880;2024-02-21T01:31:56;1.3;;;0.7;;
4325;SDS011;58429;49.826;10.880;2024-02-21T01:32:56;1.1;;;0.6;;
4325;SDS011;58429;49.826;10.880;2024-02-21T01:33:56;1.1;;;0.6;;
4325;SDS011;58429;49.826;10.880;2024-02-21T01:34:56;1.1;;;0.6;;
4325;SDS011;58429;49.826;10.880;2024-02-21T01:35:56;1.4;;;0.7;;
4325;SDS011;58429;49.826;10.880;2024-02-21T01:36:56;1.4;;;0.7;;
4325;SDS011;58429;49.826;10.880;2024-02-21T01:37:56;1.4;;;0.7;;
4325;SDS011;58429;49.826;10.880;2024-02-21T01:38:56;1.1;;;0.7;;
4325;SDS011;58429;49.826;10.880;2024-02-21T01:39:56;1.1;;;0.7;;
4325;SDS011;58429;49.826;10.880;2024-02-21T01:40:56;1.1;;;0.7;;
4325;SDS011;58429;49.826;10.880;2024-02-21T01:41:56;1;;;0.7;;
4325;SDS011;58429;49.826;10.880;2024-02-21T01:43:01;1;;;0.7;;
4325;SDS011;58429;49.826;10.880;2024-02-21T01:43:56;1;;;0.7;;
4325;SDS011;58429;49.826;10.880;2024-02-21T01:44:56;1;;;0.6;;
4325;SDS011;58429;49.826;10.880;2024-02-21T01:45:56;1;;;0.6;;
4325;SDS011;58429;49.826;10.880;2024-02-21T01:46:56;1;;;0.6;;
4325;SDS011;58429;49.826;10.880;2024-02-21T01:47:56;1.5;;;0.7;;
4325;SDS011;58429;49.826;10.880;2024-02-21T01:48:56;1.5;;;0.7;;
4325;SDS011;58429;49.826;10.880;2024-02-21T01:49:56;1.5;;;0.7;;
4325;SDS011;58429;49.826;10.880;2024-02-21T01:50:56;0.8;;;0.7;;
4325;SDS011;58429;49.826;10.880;2024-02-21T01:51:56;0.8;;;0.7;;
4325;SDS011;58429;49.826;10.880;2024-02-21T01:52:56;0.8;;;0.7;;
4325;SDS011;58429;49.826;10.880;2024-02-21T01:53:56;0.9;;;0.6;;
4325;SDS011;58429;49.826;10.880;2024-02-21T01:54:56;0.9;;;0.6;;
4325;SDS011;58429;49.826;10.880;2024-02-21T01:55:56;0.9;;;0.6;;
4325;SDS011;58429;49.826;10.880;2024-02-21T01:56:56;1.3;;;0.7;;
4325;SDS011;58429;49.826;10.880;2024-02-21T01:57:56;1.3;;;0.7;;
4325;SDS011;58429;49.826;10.880;2024-02-21T01:58:56;1.3;;;0.7;;
4325;SDS011;58429;49.826;10.880;2024-02-21T01:59:56;1;;;0.7;;
4325;SDS011;58429;49.826;10.880;2024-02-21T02:00:56;1;;;0.7;;
4325;SDS011;58429;49.826;10.880;2024-02-21T02:01:56;1;;;0.7;;
4325;SDS011;58429;49.826;10.880;2024-02-21T02:02:56;0.7;;;0.6;;
4325;SDS011;58429;49.826;10.880;2024-02-21T02:03:56;0.7;;;0.6;;
4325;SDS011;58429;49.826;10.880;2024-02-21T02:04:56;0.7;;;0.6;;
4325;SDS011;58429;49.826;10.880;2024-02-21T02:05:56;1;;;0.7;;
4325;SDS011;58429;49.826;10.880;2024-02-21T02:06:57;1;;;0.7;;
4325;SDS011;58429;49.826;10.880;2024-02-21T02:07:56;1;;;0.7;;
4325;SDS011;58429;49.826;10.880;2024-02-21T02:08:56;0.9;;;0.6;;
4325;SDS011;58429;49.826;10.880;2024-02-21T02:09:56;0.9;;;0.6;;
4325;SDS011;58429;49.826;10.880;2024-02-21T02:10:56;0.9;;;0.6;;
4325;SDS011;58429;49.826;10.880;2024-02-21T02:11:56;0.8;;;0.6;;
4325;SDS011;58429;49.826;10.880;2024-02-21T02:12:56;0.8;;;0.6;;
4325;SDS011;58429;49.826;10.880;2024-02-21T02:13:56;0.8;;;0.6;;
4325;SDS011;58429;49.826;10.880;2024-02-21T02:14:57;1.2;;;0.7;;
4325;SDS011;58429;49.826;10.880;2024-02-21T02:15:56;1.2;;;0.7;;
4325;SDS011;58429;49.826;10.880;2024-02-21T02:16:56;1.2;;;0.7;;
4325;SDS011;58429;49.826;10.880;2024-02-21T02:17:56;1.2;;;0.7;;
4325;SDS011;58429;49.826;10.880;2024-02-21T02:18:56;1.2;;;0.7;;
4325;SDS011;58429;49.826;10.880;2024-02-21T02:19:56;1.2;;;0.7;;
4325;SDS011;58429;49.826;10.880;2024-02-21T02:20:56;0.9;;;0.7;;
4325;SDS011;58429;49.826;10.880;2024-02-21T02:22:01;0.9;;;0.7;;
4325;SDS011;58429;49.826;10.880;2024-02-21T02:22:56;0.9;;;0.7;;
4325;SDS011;58429;49.826;10.880;2024-02-21T02:23:56;1.3;;;0.9;;
4325;SDS011;58429;49.826;10.880;2024-02-21T02:24:56;1.3;;;0.9;;
4325;SDS011;58429;49.826;10.880;2024-02-21T02:25:56;1.3;;;0.9;;
4325;SDS011;58429;49.826;10.880;2024-02-21T02:27:56;1.2;;;0.8;;
4325;SDS011;58429;49.826;10.880;2024-02-21T02:28:56;1.2;;;0.8;;
4325;SDS011;58429;49.826;10.880;2024-02-21T02:29:56;0.8;;;0.7;;
4325;SDS011;58429;49.826;10.880;2024-02-21T02:30:56;0.8;;;0.7;;
4325;SDS011;58429;49.826;10.880;2024-02-21T02:31:56;0.8;;;0.7;;
4325;SDS011;58429;49.826;10.880;2024-02-21T02:32:56;1.1;;;0.9;;
4325;SDS011;58429;49.826;10.880;2024-02-21T02:33:56;1.1;;;0.9;;
4325;SDS011;58429;49.826;10.880;2024-02-21T02:34:56;1.1;;;0.9;;
4325;SDS011;58429;49.826;10.880;2024-02-21T02:35:56;1.1;;;0.7;;
4325;SDS011;58429;49.826;10.880;2024-02-21T02:36:56;1.1;;;0.7;;
4325;SDS011;58429;49.826;10.880;2024-02-21T02:37:56;1.1;;;0.7;;
4325;SDS011;58429;49.826;10.880;2024-02-21T02:38:56;1.3;;;0.6;;
4325;SDS011;58429;49.826;10.880;2024-02-21T02:39:56;1.3;;;0.6;;
4325;SDS011;58429;49.826;10.880;2024-02-21T02:40:56;1.3;;;0.6;;
4325;SDS011;58429;49.826;10.880;2024-02-21T02:41:56;1.3;;;0.7;;
4325;SDS011;58429;49.826;10.880;2024-02-21T02:42:56;1.3;;;0.7;;
4325;SDS011;58429;49.826;10.880;2024-02-21T02:43:56;1.3;;;0.7;;
4325;SDS011;58429;49.826;10.880;2024-02-21T02:44:56;0.9;;;0.6;;
4325;SDS011;58429;49.826;10.880;2024-02-21T02:45:56;0.9;;;0.6;;
4325;SDS011;58429;49.826;10.880;2024-02-21T02:46:56;0.9;;;0.6;;
4325;SDS011;58429;49.826;10.880;2024-02-21T02:47:56;0.9;;;0.7;;
4325;SDS011;58429;49.826;10.880;2024-02-21T02:48:56;0.9;;;0.7;;
4325;SDS011;58429;49.826;10.880;2024-02-21T02:49:56;0.9;;;0.7;;
4325;SDS011;58429;49.826;10.880;2024-02-21T02:50:56;0.9;;;0.7;;
4325;SDS011;58429;49.826;10.880;2024-02-21T02:51:56;0.9;;;0.7;;
4325;SDS011;58429;49.826;10.880;2024-02-21T02:52:56;0.9;;;0.7;;
4325;SDS011;58429;49.826;10.880;2024-02-21T02:53:56;1;;;0.6;;
4325;SDS011;58429;49.826;10.880;2024-02-21T02:54:56;1;;;0.6;;
4325;SDS011;58429;49.826;10.880;2024-02-21T02:55:56;1;;;0.6;;
4325;SDS011;58429;49.826;10.880;2024-02-21T02:56:56;1;;;0.7;;
4325;SDS011;58429;49.826;10.880;2024-02-21T02:57:56;1;;;0.7;;
4325;SDS011;58429;49.826;10.880;2024-02-21T02:58:56;1;;;0.7;;
4325;SDS011;58429;49.826;10.880;2024-02-21T02:59:56;1;;;0.8;;
4325;SDS011;58429;49.826;10.880;2024-02-21T03:00:56;1;;;0.8;;
4325;SDS011;58429;49.826;10.880;2024-02-21T03:01:56;1;;;0.8;;
4325;SDS011;58429;49.826;10.880;2024-02-21T03:02:56;1;;;0.8;;
4325;SDS011;58429;49.826;10.880;2024-02-21T03:03:56;1;;;0.8;;
4325;SDS011;58429;49.826;10.880;2024-02-21T03:04:56;1;;;0.8;;
4325;SDS011;58429;49.826;10.880;2024-02-21T03:05:56;1.3;;;0.7;;
4325;SDS011;58429;49.826;10.880;2024-02-21T03:06:56;1.3;;;0.7;;
4325;SDS011;58429;49.826;10.880;2024-02-21T03:07:56;1.3;;;0.7;;
4325;SDS011;58429;49.826;10.880;2024-02-21T03:08:56;0.9;;;0.6;;
4325;SDS011;58429;49.826;10.880;2024-02-21T03:09:56;0.9;;;0.6;;
4325;SDS011;58429;49.826;10.880;2024-02-21T03:10:56;0.9;;;0.6;;
4325;SDS011;58429;49.826;10.880;2024-02-21T03:11:56;0.9;;;0.7;;
4325;SDS011;58429;49.826;10.880;2024-02-21T03:12:56;0.9;;;0.7;;
4325;SDS011;58429;49.826;10.880;2024-02-21T03:13:56;0.9;;;0.7;;
4325;SDS011;58429;49.826;10.880;2024-02-21T03:14:56;0.9;;;0.7;;
4325;SDS011;58429;49.826;10.880;2024-02-21T03:15:56;0.9;;;0.7;;
4325;SDS011;58429;49.826;10.880;2024-02-21T03:16:57;0.9;;;0.7;;
4325;SDS011;58429;49.826;10.880;2024-02-21T03:17:56;1;;;0.6;;
4325;SDS011;58429;49.826;10.880;2024-02-21T03:18:56;1;;;0.6;;
4325;SDS011;58429;49.826;10.880;2024-02-21T03:19:56;1;;;0.6;;
4325;SDS011;58429;49.826;10.880;2024-02-21T03:20:56;1.2;;;0.7;;
4325;SDS011;58429;49.826;10.880;2024-02-21T03:22:56;1.2;;;0.7;;
4325;SDS011;58429;49.826;10.880;2024-02-21T03:23:56;0.9;;;0.7;;
4325;SDS011;58429;49.826;10.880;2024-02-21T03:24:56;0.9;;;0.7;;
4325;SDS011;58429;49.826;10.880;2024-02-21T03:25:56;0.9;;;0.7;;
4325;SDS011;58429;49.826;10.880;2024-02-21T03:26:56;0.9;;;0.7;;
4325;SDS011;58429;49.826;10.880;2024-02-21T03:27:56;0.9;;;0.7;;
4325;SDS011;58429;49.826;10.880;2024-02-21T03:28:56;0.9;;;0.7;;
4325;SDS011;58429;49.826;10.880;2024-02-21T03:29:56;1.1;;;0.7;;
4325;SDS011;58429;49.826;10.880;2024-02-21T03:30:56;1.1;;;0.7;;
4325;SDS011;58429;49.826;10.880;2024-02-21T03:31:56;1.1;;;0.7;;
4325;SDS011;58429;49.826;10.880;2024-02-21T03:32:56;1.1;;;0.8;;
4325;SDS011;58429;49.826;10.880;2024-02-21T03:33:56;1.1;;;0.8;;
4325;SDS011;58429;49.826;10.880;2024-02-21T03:34:56;1.1;;;0.8;;
4325;SDS011;58429;49.826;10.880;2024-02-21T03:35:56;1.2;;;0.7;;
4325;SDS011;58429;49.826;10.880;2024-02-21T03:36:56;1.2;;;0.7;;
4325;SDS011;58429;49.826;10.880;2024-02-21T03:37:56;1.2;;;0.7;;
4325;SDS011;58429;49.826;10.880;2024-02-21T03:38:57;1.3;;;0.7;;
4325;SDS011;58429;49.826;10.880;2024-02-21T03:39:56;1.3;;;0.7;;
4325;SDS011;58429;49.826;10.880;2024-02-21T03:40:56;1.3;;;0.7;;
4325;SDS011;58429;49.826;10.880;2024-02-21T03:41:56;1;;;0.7;;
4325;SDS011;58429;49.826;10.880;2024-02-21T03:42:56;1;;;0.7;;
4325;SDS011;58429;49.826;10.880;2024-02-21T03:43:56;1;;;0.7;;
4325;SDS011;58429;49.826;10.880;2024-02-21T03:44:56;0.7;;;0.5;;
4325;SDS011;58429;49.826;10.880;2024-02-21T03:45:56;0.7;;;0.5;;
4325;SDS011;58429;49.826;10.880;2024-02-21T03:46:56;0.7;;;0.5;;
4325;SDS011;58429;49.826;10.880;2024-02-21T03:47:56;0.8;;;0.8;;
4325;SDS011;58429;49.826;10.880;2024-02-21T03:48:56;0.8;;;0.8;;
4325;SDS011;58429;49.826;10.880;2024-02-21T03:49:57;0.8;;;0.8;;
4325;SDS011;58429;49.826;10.880;2024-02-21T03:50:57;1;;;0.6;;
4325;SDS011;58429;49.826;10.880;2024-02-21T03:51:56;1;;;0.6;;
4325;SDS011;58429;49.826;10.880;2024-02-21T03:52:56;1;;;0.6;;
4325;SDS011;58429;49.826;10.880;2024-02-21T03:53:56;0.7;;;0.7;;
4325;SDS011;58429;49.826;10.880;2024-02-21T03:54:56;0.7;;;0.7;;
4325;SDS011;58429;49.826;10.880;2024-02-21T03:55:56;0.7;;;0.7;;
4325;SDS011;58429;49.826;10.880;2024-02-21T03:56:56;1.2;;;0.7;;
4325;SDS011;58429;49.826;10.880;2024-02-21T03:57:57;1.2;;;0.7;;
4325;SDS011;58429;49.826;10.880;2024-02-21T03:58:56;1.2;;;0.7;;
4325;SDS011;58429;49.826;10.880;2024-02-21T03:59:56;1.3;;;0.6;;
4325;SDS011;58429;49.826;10.880;2024-02-21T04:00:56;1.3;;;0.6;;
4325;SDS011;58429;49.826;10.880;2024-02-21T04:01:56;1.3;;;0.6;;
4325;SDS011;58429;49.826;10.880;2024-02-21T04:02:56;0.8;;;0.6;;
4325;SDS011;58429;49.826;10.880;2024-02-21T04:03:56;0.8;;;0.6;;
4325;SDS011;58429;49.826;10.880;2024-02-21T04:04:56;0.8;;;0.6;;
4325;SDS011;58429;49.826;10.880;2024-02-21T04:05:56;0.8;;;0.7;;
4325;SDS011;58429;49.826;10.880;2024-02-21T04:06:57;0.8;;;0.7;;
4325;SDS011;58429;49.826;10.880;2024-02-21T04:07:57;0.8;;;0.7;;
4325;SDS011;58429;49.826;10.880;2024-02-21T04:08:57;1.4;;;0.8;;
4325;SDS011;58429;49.826;10.880;2024-02-21T04:09:57;1.4;;;0.8;;
4325;SDS011;58429;49.826;10.880;2024-02-21T04:10:56;1.4;;;0.8;;
4325;SDS011;58429;49.826;10.880;2024-02-21T04:11:57;0.8;;;0.7;;
4325;SDS011;58429;49.826;10.880;2024-02-21T04:12:57;0.8;;;0.7;;
4325;SDS011;58429;49.826;10.880;2024-02-21T04:13:56;0.8;;;0.7;;
4325;SDS011;58429;49.826;10.880;2024-02-21T04:14:57;0.9;;;0.7;;
4325;SDS011;58429;49.826;10.880;2024-02-21T04:15:57;0.9;;;0.7;;
4325;SDS011;58429;49.826;10.880;2024-02-21T04:16:57;0.9;;;0.7;;
4325;SDS011;58429;49.826;10.880;2024-02-21T04:17:57;1.1;;;0.6;;
4325;SDS011;58429;49.826;10.880;2024-02-21T04:18:57;1.1;;;0.6;;
4325;SDS011;58429;49.826;10.880;2024-02-21T04:20:01;1.1;;;0.6;;
4325;SDS011;58429;49.826;10.880;2024-02-21T04:20:57;0.9;;;0.8;;
4325;SDS011;58429;49.826;10.880;2024-02-21T04:21:57;0.9;;;0.8;;
4325;SDS011;58429;49.826;10.880;2024-02-21T04:22:57;0.9;;;0.8;;
4325;SDS011;58429;49.826;10.880;2024-02-21T04:23:57;1;;;0.6;;
4325;SDS011;58429;49.826;10.880;2024-02-21T04:24:57;1;;;0.6;;
4325;SDS011;58429;49.826;10.880;2024-02-21T04:25:57;1;;;0.6;;
4325;SDS011;58429;49.826;10.880;2024-02-21T04:26:57;0.8;;;0.7;;
4325;SDS011;58429;49.826;10.880;2024-02-21T04:27:57;0.8;;;0.7;;
4325;SDS011;58429;49.826;10.880;2024-02-21T04:28:57;0.8;;;0.7;;
4325;SDS011;58429;49.826;10.880;2024-02-21T04:29:57;0.8;;;0.7;;
4325;SDS011;58429;49.826;10.880;2024-02-21T04:43:04;1.1;;;0.6;;
4325;SDS011;58429;49.826;10.880;2024-02-21T04:43:57;1.1;;;0.6;;
4325;SDS011;58429;49.826;10.880;2024-02-21T04:44:57;1.1;;;0.6;;
4325;SDS011;58429;49.826;10.880;2024-02-21T04:45:57;0.7;;;0.6;;
4325;SDS011;58429;49.826;10.880;2024-02-21T04:46:57;0.7;;;0.6;;
4325;SDS011;58429;49.826;10.880;2024-02-21T04:47:57;0.7;;;0.6;;
4325;SDS011;58429;49.826;10.880;2024-02-21T04:48:57;0.7;;;0.6;;
4325;SDS011;58429;49.826;10.880;2024-02-21T04:49:57;0.7;;;0.6;;
4325;SDS011;58429;49.826;10.880;2024-02-21T04:50:57;0.7;;;0.6;;
4325;SDS011;58429;49.826;10.880;2024-02-21T04:51:57;1.1;;;0.8;;
4325;SDS011;58429;49.826;10.880;2024-02-21T04:52:57;1.1;;;0.8;;
4325;SDS011;58429;49.826;10.880;2024-02-21T04:53:57;1.1;;;0.8;;
4325;SDS011;58429;49.826;10.880;2024-02-21T04:54:57;1;;;0.6;;
4325;SDS011;58429;49.826;10.880;2024-02-21T04:55:57;1;;;0.6;;
4325;SDS011;58429;49.826;10.880;2024-02-21T04:56:57;1;;;0.6;;
4325;SDS011;58429;49.826;10.880;2024-02-21T04:57:57;0.8;;;0.6;;
4325;SDS011;58429;49.826;10.880;2024-02-21T04:58:57;0.8;;;0.6;;
4325;SDS011;58429;49.826;10.880;2024-02-21T04:59:57;0.8;;;0.6;;
4325;SDS011;58429;49.826;10.880;2024-02-21T05:00:57;1.2;;;0.8;;
4325;SDS011;58429;49.826;10.880;2024-02-21T05:01:57;1.2;;;0.8;;
4325;SDS011;58429;49.826;10.880;2024-02-21T05:02:57;1.2;;;0.8;;
4325;SDS011;58429;49.826;10.880;2024-02-21T05:03:57;0.7;;;0.6;;
4325;SDS011;58429;49.826;10.880;2024-02-21T05:04:57;0.7;;;0.6;;
4325;SDS011;58429;49.826;10.880;2024-02-21T05:05:57;0.7;;;0.6;;
4325;SDS011;58429;49.826;10.880;2024-02-21T05:06:57;0.7;;;0.6;;
4325;SDS011;58429;49.826;10.880;2024-02-21T05:07:57;0.7;;;0.6;;
4325;SDS011;58429;49.826;10.880;2024-02-21T05:08:57;0.7;;;0.6;;
4325;SDS011;58429;49.826;10.880;2024-02-21T05:09:57;1.1;;;0.8;;
4325;SDS011;58429;49.826;10.880;2024-02-21T05:10:57;1.1;;;0.8;;
4325;SDS011;58429;49.826;10.880;2024-02-21T05:11:57;1.1;;;0.8;;
4325;SDS011;58429;49.826;10.880;2024-02-21T05:12:57;1.1;;;0.8;;
4325;SDS011;58429;49.826;10.880;2024-02-21T05:13:57;1.1;;;0.8;;
4325;SDS011;58429;49.826;10.880;2024-02-21T05:14:57;1.1;;;0.8;;
4325;SDS011;58429;49.826;10.880;2024-02-21T05:15:57;1.5;;;0.8;;
4325;SDS011;58429;49.826;10.880;2024-02-21T05:16:57;1.5;;;0.8;;
4325;SDS011;58429;49.826;10.880;2024-02-21T05:17:57;1.5;;;0.8;;
4325;SDS011;58429;49.826;10.880;2024-02-21T05:18:57;1;;;0.6;;
4325;SDS011;58429;49.826;10.880;2024-02-21T05:19:57;1;;;0.6;;
4325;SDS011;58429;49.826;10.880;2024-02-21T05:20:57;1;;;0.6;;
4325;SDS011;58429;49.826;10.880;2024-02-21T05:21:58;1.3;;;0.9;;
4325;SDS011;58429;49.826;10.880;2024-02-21T05:22:57;1.3;;;0.9;;
4325;SDS011;58429;49.826;10.880;2024-02-21T05:23:57;1.3;;;0.9;;
4325;SDS011;58429;49.826;10.880;2024-02-21T05:24:57;0.8;;;0.7;;
4325;SDS011;58429;49.826;10.880;2024-02-21T05:25:57;0.8;;;0.7;;
4325;SDS011;58429;49.826;10.880;2024-02-21T05:26:57;0.8;;;0.7;;
4325;SDS011;58429;49.826;10.880;2024-02-21T05:27:57;1;;;0.9;;
4325;SDS011;58429;49.826;10.880;2024-02-21T05:28:57;1;;;0.9;;
4325;SDS011;58429;49.826;10.880;2024-02-21T05:29:57;1;;;0.9;;
4325;SDS011;58429;49.826;10.880;2024-02-21T05:30:57;0.8;;;0.7;;
4325;SDS011;58429;49.826;10.880;2024-02-21T05:31:57;0.8;;;0.7;;
4325;SDS011;58429;49.826;10.880;2024-02-21T05:32:57;0.8;;;0.7;;
4325;SDS011;58429;49.826;10.880;2024-02-21T05:33:57;1.1;;;0.7;;
4325;SDS011;58429;49.826;10.880;2024-02-21T05:34:57;1.1;;;0.7;;
4325;SDS011;58429;49.826;10.880;2024-02-21T05:35:57;1.1;;;0.7;;
4325;SDS011;58429;49.826;10.880;2024-02-21T05:36:57;0.9;;;0.7;;
4325;SDS011;58429;49.826;10.880;2024-02-21T05:37:57;0.9;;;0.7;;
4325;SDS011;58429;49.826;10.880;2024-02-21T05:38:57;0.9;;;0.7;;
4325;SDS011;58429;49.826;10.880;2024-02-21T05:39:57;1.2;;;0.8;;
4325;SDS011;58429;49.826;10.880;2024-02-21T05:40:57;1.2;;;0.8;;
4325;SDS011;58429;49.826;10.880;2024-02-21T05:41:57;1.2;;;0.8;;
4325;SDS011;58429;49.826;10.880;2024-02-21T05:42:57;1.2;;;0.7;;
4325;SDS011;58429;49.826;10.880;2024-02-21T05:43:57;1.2;;;0.7;;
4325;SDS011;58429;49.826;10.880;2024-02-21T05:44:57;1.2;;;0.7;;
4325;SDS011;58429;49.826;10.880;2024-02-21T05:45:57;0.8;;;0.8;;
4325;SDS011;58429;49.826;10.880;2024-02-21T05:46:57;0.8;;;0.8;;
4325;SDS011;58429;49.826;10.880;2024-02-21T05:47:57;0.8;;;0.8;;
4325;SDS011;58429;49.826;10.880;2024-02-21T05:48:57;0.8;;;0.5;;
4325;SDS011;58429;49.826;10.880;2024-02-21T05:49:57;0.8;;;0.5;;
4325;SDS011;58429;49.826;10.880;2024-02-21T05:50:57;0.8;;;0.5;;
4325;SDS011;58429;49.826;10.880;2024-02-21T05:51:57;0.9;;;0.8;;
4325;SDS011;58429;49.826;10.880;2024-02-21T05:53:02;0.9;;;0.8;;
4325;SDS011;58429;49.826;10.880;2024-02-21T05:53:57;0.9;;;0.8;;
4325;SDS011;58429;49.826;10.880;2024-02-21T05:54:57;0.9;;;0.7;;
4325;SDS011;58429;49.826;10.880;2024-02-21T05:55:57;0.9;;;0.7;;
4325;SDS011;58429;49.826;10.880;2024-02-21T05:56:57;0.9;;;0.7;;
4325;SDS011;58429;49.826;10.880;2024-02-21T05:57:57;0.8;;;0.6;;
4325;SDS011;58429;49.826;10.880;2024-02-21T05:58:57;0.8;;;0.6;;
4325;SDS011;58429;49.826;10.880;2024-02-21T05:59:57;0.8;;;0.6;;
4325;SDS011;58429;49.826;10.880;2024-02-21T06:00:57;0.9;;;0.7;;
4325;SDS011;58429;49.826;10.880;2024-02-21T06:01:57;0.9;;;0.7;;
4325;SDS011;58429;49.826;10.880;2024-02-21T06:02:57;0.9;;;0.7;;
4325;SDS011;58429;49.826;10.880;2024-02-21T06:03:57;0.8;;;0.6;;
4325;SDS011;58429;49.826;10.880;2024-02-21T06:04:57;0.8;;;0.6;;
4325;SDS011;58429;49.826;10.880;2024-02-21T06:05:57;0.8;;;0.6;;
4325;SDS011;58429;49.826;10.880;2024-02-21T06:06:57;0.7;;;0.7;;
4325;SDS011;58429;49.826;10.880;2024-02-21T06:07:57;0.7;;;0.7;;
4325;SDS011;58429;49.826;10.880;2024-02-21T06:08:57;0.7;;;0.7;;
4325;SDS011;58429;49.826;10.880;2024-02-21T06:09:57;1.4;;;0.8;;
4325;SDS011;58429;49.826;10.880;2024-02-21T06:10:57;1.4;;;0.8;;
4325;SDS011;58429;49.826;10.880;2024-02-21T06:11:57;1.4;;;0.8;;
4325;SDS011;58429;49.826;10.880;2024-02-21T06:12:57;1.4;;;0.9;;
4325;SDS011;58429;49.826;10.880;2024-02-21T06:13:57;1.4;;;0.9;;
4325;SDS011;58429;49.826;10.880;2024-02-21T06:14:57;1.4;;;0.9;;
4325;SDS011;58429;49.826;10.880;2024-02-21T06:15:57;1;;;0.7;;
4325;SDS011;58429;49.826;10.880;2024-02-21T06:16:57;1;;;0.7;;
4325;SDS011;58429;49.826;10.880;2024-02-21T06:17:57;1;;;0.7;;
4325;SDS011;58429;49.826;10.880;2024-02-21T06:18:57;1;;;0.8;;
4325;SDS011;58429;49.826;10.880;2024-02-21T06:19:57;1;;;0.8;;
4325;SDS011;58429;49.826;10.880;2024-02-21T06:20:57;1;;;0.8;;
4325;SDS011;58429;49.826;10.880;2024-02-21T06:21:57;0.8;;;0.6;;
4325;SDS011;58429;49.826;10.880;2024-02-21T06:22:57;0.8;;;0.6;;
4325;SDS011;58429;49.826;10.880;2024-02-21T06:23:57;0.8;;;0.6;;
4325;SDS011;58429;49.826;10.880;2024-02-21T06:24:57;1.1;;;0.8;;
4325;SDS011;58429;49.826;10.880;2024-02-21T06:25:57;1.1;;;0.8;;
4325;SDS011;58429;49.826;10.880;2024-02-21T06:26:57;1.1;;;0.8;;
4325;SDS011;58429;49.826;10.880;2024-02-21T06:27:57;1;;;0.7;;
4325;SDS011;58429;49.826;10.880;2024-02-21T06:28:57;1;;;0.7;;